Time;durP1;ratioP1;P1;durP2;ratioP2;P2;SDS_P1;SDS_P2;PMS_P1;PMS_P2;Temp;Humidity;BMP_temperature;BMP_pressure;BME280_temperature;BME280_humidity;BME280_pressure;Samples;Min_cycle;Max_cycle;Signal;HPM_P1;HPM_P2
2023/03/03 00:02:15;;;;;;;55.42;28.00;;;5.40;58.20;;;;;;5008580;28;20053;-50
2023/03/03 00:04:47;;;;;;;63.22;33.35;;;5.50;58.40;;;;;;5008213;28;20469;-48
2023/03/03 00:07:20;;;;;;;64.00;33.10;;;5.50;58.70;;;;;;5010492;28;20061;-51
2023/03/03 00:09:50;;;;;;;74.90;37.85;;;5.60;58.60;;;;;;5008413;28;20088;-48
2023/03/03 00:12:26;;;;;;;76.35;38.78;;;5.60;58.50;;;;;;5009304;28;20111;-52
2023/03/03 00:14:56;;;;;;;75.00;39.60;;;5.70;58.60;;;;;;5009367;28;20402;-51
2023/03/03 00:17:29;;;;;;;86.10;40.78;;;5.70;58.30;;;;;;5008985;28;20141;-53
2023/03/03 00:19:56;;;;;;;82.95;41.15;;;5.80;58.30;;;;;;5008484;28;20038;-51
2023/03/03 00:22:36;;;;;;;76.25;40.83;;;5.80;58.30;;;;;;5006776;28;20042;-50
2023/03/03 00:25:18;;;;;;;74.78;39.42;;;5.80;58.90;;;;;;5008927;28;20038;-50
2023/03/03 00:27:45;;;;;;;77.75;40.63;;;5.80;59.30;;;;;;5003489;28;20654;-48
2023/03/03 00:30:31;;;;;;;90.47;43.60;;;5.80;58.20;;;;;;5024157;28;20046;-49
2023/03/03 00:32:57;;;;;;;90.47;44.58;;;5.80;58.90;;;;;;5008656;28;20030;-48
2023/03/03 00:35:37;;;;;;;83.97;46.03;;;5.80;58.10;;;;;;5008003;28;20037;-47
2023/03/03 00:38:18;;;;;;;93.32;46.22;;;5.80;58.30;;;;;;5025370;28;20042;-49
2023/03/03 00:40:46;;;;;;;94.13;46.97;;;5.80;59.00;;;;;;5003369;28;20506;-47
2023/03/03 00:43:23;;;;;;;105.65;49.13;;;5.80;58.40;;;;;;5008997;28;20042;-47
2023/03/03 00:45:55;;;;;;;103.32;51.67;;;5.80;59.00;;;;;;5009718;28;20038;-50
2023/03/03 00:48:38;;;;;;;95.50;48.25;;;5.80;58.70;;;;;;5007564;28;20510;-49
2023/03/03 00:51:21;;;;;;;94.13;47.90;;;5.80;58.50;;;;;;5007641;28;20042;-47
2023/03/03 00:53:57;;;;;;;90.25;45.15;;;5.90;59.20;;;;;;5008463;28;20118;-49
2023/03/03 00:56:26;;;;;;;99.50;50.33;;;5.80;58.50;;;;;;5010339;28;20517;-50
2023/03/03 00:58:56;;;;;;;98.53;51.13;;;5.80;58.60;;;;;;5011401;28;20046;-48
2023/03/03 01:01:31;;;;;;;103.70;51.58;;;5.90;58.70;;;;;;5010993;28;20093;-47
2023/03/03 01:03:57;;;;;;;103.93;50.40;;;5.90;58.70;;;;;;5010726;28;20237;-47
2023/03/03 01:06:24;;;;;;;100.28;50.65;;;5.90;58.80;;;;;;5027544;28;20050;-51
2023/03/03 01:08:51;;;;;;;99.72;49.00;;;5.90;58.70;;;;;;5012677;28;20469;-51
2023/03/03 01:11:24;;;;;;;102.32;53.25;;;5.90;58.80;;;;;;4993613;28;20041;-47
2023/03/03 01:13:59;;;;;;;97.60;50.88;;;6.00;58.90;;;;;;5012306;28;20080;-50
2023/03/03 01:16:27;;;;;;;102.03;49.65;;;6.00;58.70;;;;;;5009887;28;20121;-50
2023/03/03 01:18:56;;;;;;;110.07;51.90;;;5.90;58.60;;;;;;5012809;28;20467;-50
2023/03/03 01:21:23;;;;;;;103.85;48.53;;;5.90;58.60;;;;;;5026205;28;20054;-48
2023/03/03 01:23:54;;;;;;;94.85;48.35;;;5.90;58.70;;;;;;5023559;28;20180;-52
2023/03/03 01:26:26;;;;;;;99.85;48.17;;;5.90;58.80;;;;;;5012797;28;20729;-50
2023/03/03 01:28:55;;;;;;;96.93;47.95;;;5.90;59.00;;;;;;5027855;28;20072;-49
2023/03/03 01:31:28;;;;;;;94.18;47.75;;;5.90;59.20;;;;;;5011157;28;20065;-48
2023/03/03 01:33:59;;;;;;;92.47;47.17;;;5.90;59.40;;;;;;5010592;28;20065;-51
2023/03/03 01:36:30;;;;;;;90.90;45.83;;;5.90;59.00;;;;;;5012549;28;20045;-50
2023/03/03 01:39:02;;;;;;;86.97;44.08;;;5.90;59.20;;;;;;5011954;28;20128;-51
2023/03/03 01:41:32;;;;;;;82.88;42.88;;;5.80;59.20;;;;;;5009920;28;20041;-50
2023/03/03 01:44:01;;;;;;;85.78;42.28;;;5.90;59.10;;;;;;5010340;28;20041;-50
2023/03/03 01:47:02;;;;;;;88.22;42.60;;;5.80;59.00;;;;;;5012532;28;20064;-47
2023/03/03 01:49:35;;;;;;;81.18;40.40;;;5.80;59.90;;;;;;5025758;28;20145;-50
2023/03/03 01:52:11;;;;;;;82.10;41.35;;;5.80;59.10;;;;;;5025616;28;20514;-50
2023/03/03 01:54:46;;;;;;;79.00;42.03;;;5.80;59.60;;;;;;5009321;28;20058;-47
2023/03/03 01:57:21;;;;;;;73.05;38.17;;;5.80;59.30;;;;;;5011124;28;20034;-50
2023/03/03 02:00:01;;;;;;;72.25;37.53;;;5.80;59.50;;;;;;5009325;28;20158;-51
2023/03/03 02:02:44;;;;;;;77.57;38.22;;;5.80;59.30;;;;;;5006927;28;20053;-47
2023/03/03 02:05:20;;;;;;;72.90;37.90;;;5.80;59.20;;;;;;5010226;28;20046;-52
2023/03/03 02:07:49;;;;;;;71.35;37.85;;;5.80;59.40;;;;;;5026236;28;20042;-47
2023/03/03 02:10:20;;;;;;;73.88;37.40;;;5.80;59.40;;;;;;5026442;28;20076;-51
2023/03/03 02:12:55;;;;;;;78.13;39.40;;;5.80;59.60;;;;;;5011031;28;20042;-49
2023/03/03 02:15:31;;;;;;;68.43;36.88;;;5.80;60.00;;;;;;5010386;28;20057;-54
2023/03/03 02:18:18;;;;;;;70.15;38.22;;;5.80;59.50;;;;;;5009056;28;20042;-48
2023/03/03 02:21:02;;;;;;;64.28;33.83;;;5.80;60.60;;;;;;5023109;28;20052;-47
2023/03/03 02:23:37;;;;;;;68.57;33.55;;;5.90;59.80;;;;;;5008941;28;20049;-50
2023/03/03 02:26:14;;;;;;;65.80;34.05;;;5.90;59.30;;;;;;5010874;28;20125;-50
2023/03/03 02:28:43;;;;;;;60.47;34.17;;;5.90;59.50;;;;;;5009984;28;20138;-48
2023/03/03 02:31:17;;;;;;;66.20;33.67;;;5.90;59.30;;;;;;5010045;28;20046;-45
2023/03/03 02:33:51;;;;;;;54.15;30.67;;;5.90;59.50;;;;;;5010637;28;20460;-48
2023/03/03 02:36:33;;;;;;;52.58;28.73;;;5.90;59.60;;;;;;5010980;28;20457;-48
2023/03/03 02:39:25;;;;;;;54.22;27.95;;;5.90;60.10;;;;;;5026586;28;20050;-49
2023/03/03 02:42:00;;;;;;;48.50;26.92;;;5.90;60.40;;;;;;5001726;28;20046;-50
2023/03/03 02:44:39;;;;;;;48.15;27.55;;;5.80;59.50;;;;;;5009763;28;20072;-45
2023/03/03 02:47:08;;;;;;;51.35;27.55;;;5.90;59.50;;;;;;5009006;28;20096;-46
2023/03/03 02:49:36;;;;;;;55.92;29.25;;;5.80;59.50;;;;;;5009882;28;20057;-50
2023/03/03 02:52:06;;;;;;;53.38;28.58;;;5.80;59.50;;;;;;5008041;28;20058;-48
2023/03/03 02:54:36;;;;;;;59.15;30.85;;;5.90;59.60;;;;;;5026136;28;20053;-47
2023/03/03 02:57:04;;;;;;;53.42;27.95;;;5.80;59.50;;;;;;5009394;28;20057;-48
2023/03/03 02:59:38;;;;;;;49.60;26.30;;;5.80;59.60;;;;;;5010491;28;20631;-48
2023/03/03 03:02:11;;;;;;;54.13;29.65;;;5.90;60.20;;;;;;5005776;28;20050;-47
2023/03/03 03:04:48;;;;;;;47.10;27.15;;;5.90;59.60;;;;;;5009930;28;20053;-46
2023/03/03 03:07:20;;;;;;;50.95;27.67;;;5.90;59.50;;;;;;5007982;28;20096;-46
2023/03/03 03:09:49;;;;;;;46.78;26.90;;;5.90;59.60;;;;;;5010079;28;20038;-52
2023/03/03 03:12:18;;;;;;;52.30;26.50;;;5.90;59.60;;;;;;5005783;28;20054;-47
2023/03/03 03:14:51;;;;;;;49.90;27.58;;;5.80;59.60;;;;;;5009724;28;20411;-46
2023/03/03 03:17:18;;;;;;;49.30;27.05;;;5.80;59.60;;;;;;5008297;28;20042;-49
2023/03/03 03:19:48;;;;;;;61.95;31.08;;;5.80;59.50;;;;;;4991966;28;20038;-50
2023/03/03 03:22:18;;;;;;;57.35;30.63;;;5.80;59.60;;;;;;5007964;28;20136;-49
2023/03/03 03:24:48;;;;;;;59.50;32.63;;;5.80;59.60;;;;;;5009531;28;20042;-46
2023/03/03 03:27:14;;;;;;;52.08;26.92;;;5.80;59.70;;;;;;5024886;28;20689;-51
2023/03/03 03:29:42;;;;;;;46.80;27.35;;;5.80;59.80;;;;;;5008921;28;20062;-48
2023/03/03 03:32:17;;;;;;;43.97;24.58;;;5.80;59.80;;;;;;5007975;28;20069;-49
2023/03/03 03:34:46;;;;;;;;;;;5.80;59.70;;;;;;5025567;28;20053;-46
2023/03/03 03:37:15;;;;;;;41.47;22.17;;;5.80;60.20;;;;;;5024410;28;19964;-49
2023/03/03 03:39:44;;;;;;;49.45;26.55;;;5.80;59.20;;;;;;5025556;28;20037;-46
2023/03/03 03:42:13;;;;;;;43.10;24.13;;;5.80;59.50;;;;;;5009282;28;20042;-49
2023/03/03 03:44:42;;;;;;;45.72;25.73;;;5.80;59.50;;;;;;5008814;28;20050;-47
2023/03/03 03:47:09;;;;;;;45.65;25.70;;;5.70;59.50;;;;;;5009259;28;20080;-47
2023/03/03 03:49:39;;;;;;;44.10;25.02;;;5.80;59.80;;;;;;5024538;28;20034;-47
2023/03/03 03:52:07;;;;;;;41.45;23.30;;;5.80;59.80;;;;;;5023871;28;20522;-49
2023/03/03 03:54:37;;;;;;;38.95;22.73;;;5.80;59.90;;;;;;5008638;28;20096;-49
2023/03/03 03:57:04;;;;;;;36.10;19.98;;;5.80;60.20;;;;;;5009370;28;20113;-50
2023/03/03 03:59:33;;;;;;;41.80;23.20;;;5.80;60.10;;;;;;5007142;28;20099;-47
2023/03/03 04:02:00;;;;;;;43.75;23.50;;;5.80;59.90;;;;;;5008425;28;20454;-49
2023/03/03 04:04:30;;;;;;;40.58;22.92;;;5.80;59.90;;;;;;5024841;28;20133;-49
2023/03/03 04:07:03;;;;;;;45.55;24.10;;;5.80;59.90;;;;;;5023398;28;20045;-47
2023/03/03 04:09:33;;;;;;;41.35;22.92;;;5.80;60.00;;;;;;5008159;28;20084;-48
2023/03/03 04:12:00;;;;;;;45.35;24.48;;;5.80;60.00;;;;;;5009713;28;20454;-47
2023/03/03 04:14:30;;;;;;;49.00;24.55;;;5.80;60.20;;;;;;5024213;28;20038;-48
2023/03/03 04:17:00;;;;;;;43.15;23.20;;;5.70;60.10;;;;;;5007166;28;20048;-49
2023/03/03 04:19:31;;;;;;;38.78;21.30;;;5.70;60.10;;;;;;5006188;28;20411;-48
2023/03/03 04:21:59;;;;;;;40.72;21.73;;;5.70;60.20;;;;;;5006643;28;20118;-48
2023/03/03 04:24:29;;;;;;;38.60;20.85;;;5.70;60.10;;;;;;5008442;28;20046;-48
2023/03/03 04:26:59;;;;;;;38.13;21.25;;;5.70;60.00;;;;;;5008075;28;20057;-47
2023/03/03 04:29:26;;;;;;;44.72;22.60;;;5.70;60.30;;;;;;5008223;28;20068;-48
2023/03/03 04:31:54;;;;;;;41.40;20.95;;;5.70;60.20;;;;;;5010363;28;20562;-50
2023/03/03 04:34:22;;;;;;;40.25;21.98;;;5.70;60.00;;;;;;5028375;28;20042;-49
2023/03/03 04:36:49;;;;;;;38.85;21.83;;;5.70;60.00;;;;;;5011279;28;20092;-46
2023/03/03 04:39:17;;;;;;;40.45;21.17;;;5.70;60.10;;;;;;5012053;28;20072;-47
2023/03/03 04:41:49;;;;;;;40.92;22.92;;;5.60;60.20;;;;;;5015564;28;20049;-48
2023/03/03 04:44:21;;;;;;;49.63;25.95;;;5.60;60.20;;;;;;5011872;28;20049;-46
2023/03/03 04:46:48;;;;;;;46.92;24.80;;;5.60;60.40;;;;;;5012777;28;20034;-46
2023/03/03 04:49:20;;;;;;;49.65;24.85;;;5.60;60.20;;;;;;5027539;28;20096;-49
2023/03/03 04:51:49;;;;;;;55.83;25.90;;;5.60;60.10;;;;;;5010914;28;20052;-47
2023/03/03 04:54:19;;;;;;;49.58;25.00;;;5.50;60.10;;;;;;5028229;28;20045;-48
2023/03/03 04:56:46;;;;;;;46.40;23.45;;;5.50;60.20;;;;;;5011371;28;20041;-47
2023/03/03 04:59:17;;;;;;;51.25;26.33;;;5.50;60.30;;;;;;5012910;28;20053;-47
2023/03/03 05:01:49;;;;;;;55.58;27.23;;;5.50;60.60;;;;;;5012240;28;20050;-47
2023/03/03 05:04:20;;;;;;;49.67;25.63;;;5.40;60.60;;;;;;5027709;28;20426;-48
2023/03/03 05:06:48;;;;;;;47.80;24.67;;;5.50;60.50;;;;;;5012423;28;20066;-46
2023/03/03 05:09:14;;;;;;;45.70;23.23;;;5.50;60.50;;;;;;5011627;28;20050;-48
2023/03/03 05:11:41;;;;;;;44.45;23.83;;;5.50;60.50;;;;;;5009198;28;20061;-47
2023/03/03 05:14:11;;;;;;;41.17;22.58;;;5.50;60.60;;;;;;5012591;28;20522;-50
2023/03/03 05:16:38;;;;;;;45.08;22.90;;;5.50;60.70;;;;;;5003923;28;20044;-47
2023/03/03 05:19:04;;;;;;;37.58;21.65;;;5.50;60.60;;;;;;5008290;28;20125;-50
2023/03/03 05:21:31;;;;;;;45.33;24.45;;;5.40;60.70;;;;;;5011232;28;20038;-48
2023/03/03 05:23:58;;;;;;;43.28;22.13;;;5.50;60.80;;;;;;5010847;28;20038;-47
2023/03/03 05:26:35;;;;;;;43.70;23.13;;;5.50;60.80;;;;;;5011761;28;20040;-48
2023/03/03 05:29:01;;;;;;;48.45;23.65;;;5.50;60.80;;;;;;5009068;28;20073;-51
2023/03/03 05:31:28;;;;;;;48.05;23.50;;;5.50;60.90;;;;;;5007017;28;20073;-49
2023/03/03 05:33:55;;;;;;;44.40;21.10;;;5.50;60.80;;;;;;5003680;28;20125;-50
2023/03/03 05:36:22;;;;;;;46.13;23.75;;;5.50;60.80;;;;;;5023032;28;20113;-48
2023/03/03 05:38:48;;;;;;;39.67;22.50;;;5.40;60.80;;;;;;5003562;28;20039;-48
2023/03/03 05:41:15;;;;;;;47.22;23.73;;;5.50;60.80;;;;;;5003163;28;20046;-50
2023/03/03 05:43:42;;;;;;;40.53;22.30;;;5.40;60.70;;;;;;5004538;28;20052;-48
2023/03/03 05:46:09;;;;;;;40.28;22.10;;;5.40;60.80;;;;;;5001555;28;20045;-49
2023/03/03 05:48:38;;;;;;;38.72;20.48;;;5.40;60.90;;;;;;5008343;28;20057;-48
2023/03/03 05:51:05;;;;;;;42.92;22.95;;;5.40;60.90;;;;;;5001000;28;20117;-47
2023/03/03 05:53:31;;;;;;;41.17;22.20;;;5.40;60.90;;;;;;5007467;28;20041;-46
2023/03/03 05:55:58;;;;;;;39.35;22.35;;;5.40;61.00;;;;;;5008993;28;20141;-48
2023/03/03 05:58:25;;;;;;;45.88;23.88;;;5.30;61.10;;;;;;5011153;28;20056;-48
2023/03/03 06:00:51;;;;;;;42.33;22.85;;;5.40;61.30;;;;;;5011283;28;20045;-48
2023/03/03 06:03:18;;;;;;;49.88;24.23;;;5.40;61.20;;;;;;5013686;28;20517;-47
2023/03/03 06:05:45;;;;;;;43.38;22.80;;;5.40;61.10;;;;;;5011913;28;20030;-51
2023/03/03 06:08:11;;;;;;;43.63;21.10;;;5.40;61.10;;;;;;5010994;28;20042;-47
2023/03/03 06:10:40;;;;;;;48.25;22.88;;;5.40;61.20;;;;;;5010231;28;20070;-46
2023/03/03 06:13:09;;;;;;;42.35;22.10;;;5.40;61.10;;;;;;5026166;28;20046;-48
2023/03/03 06:15:36;;;;;;;47.33;23.67;;;5.40;61.00;;;;;;5006627;28;20485;-46
2023/03/03 06:18:04;;;;;;;43.78;21.27;;;5.40;61.00;;;;;;5006724;28;20042;-48
2023/03/03 06:20:30;;;;;;;43.22;23.48;;;5.40;61.00;;;;;;5009539;28;20045;-47
2023/03/03 06:22:57;;;;;;;47.38;24.10;;;5.40;60.90;;;;;;5008731;28;20414;-48
2023/03/03 06:25:24;;;;;;;50.58;25.35;;;5.40;60.80;;;;;;5010382;28;20061;-48
2023/03/03 06:27:51;;;;;;;52.08;26.50;;;5.40;60.80;;;;;;5010565;28;20057;-48
2023/03/03 06:30:17;;;;;;;47.58;23.52;;;5.40;60.90;;;;;;5009070;28;20379;-48
2023/03/03 06:32:44;;;;;;;44.65;23.88;;;5.40;60.80;;;;;;5009735;28;20038;-48
2023/03/03 06:35:11;;;;;;;44.67;23.08;;;5.40;60.80;;;;;;5007492;28;20433;-47
2023/03/03 06:37:38;;;;;;;41.38;22.38;;;5.30;61.00;;;;;;5002840;28;20058;-46
2023/03/03 06:40:06;;;;;;;44.67;22.98;;;5.40;61.10;;;;;;5009049;28;20053;-49
2023/03/03 06:42:32;;;;;;;48.67;24.27;;;5.30;61.00;;;;;;5008651;28;20466;-46
2023/03/03 06:44:59;;;;;;;48.97;23.80;;;5.30;61.00;;;;;;5009167;28;20517;-47
2023/03/03 06:47:26;;;;;;;49.60;24.83;;;5.30;61.00;;;;;;5009510;28;20034;-47
2023/03/03 06:49:52;;;;;;;45.75;24.40;;;5.30;61.10;;;;;;5005605;28;20491;-46
2023/03/03 06:52:25;;;;;;;54.47;26.17;;;5.30;61.10;;;;;;5008828;28;20042;-47
2023/03/03 06:54:58;;;;;;;56.45;27.05;;;5.30;61.30;;;;;;5008243;28;20042;-47
2023/03/03 06:57:27;;;;;;;57.75;24.65;;;5.30;61.30;;;;;;5011902;28;20054;-47
2023/03/03 06:59:58;;;;;;;54.42;26.30;;;5.30;61.10;;;;;;5009592;28;20465;-47
2023/03/03 07:02:25;;;;;;;49.10;24.40;;;5.30;61.20;;;;;;5007350;28;20053;-48
2023/03/03 07:04:54;;;;;;;46.47;23.23;;;5.30;61.20;;;;;;5009857;28;20056;-50
2023/03/03 07:07:25;;;;;;;48.42;22.98;;;5.40;61.10;;;;;;5009541;28;20046;-47
2023/03/03 07:09:55;;;;;;;43.65;23.13;;;5.40;61.20;;;;;;5009104;28;20129;-47
2023/03/03 07:12:28;;;;;;;45.88;21.73;;;5.40;61.10;;;;;;5008735;28;20076;-46
2023/03/03 07:15:11;;;;;;;41.85;21.52;;;5.40;61.00;;;;;;5009650;28;20034;-46
2023/03/03 07:17:44;;;;;;;44.47;24.90;;;5.40;61.30;;;;;;5006523;28;20092;-48
2023/03/03 07:20:31;;;;;;;47.50;25.30;;;5.40;61.20;;;;;;5006224;28;20079;-50
2023/03/03 07:22:58;;;;;;;50.08;24.17;;;5.40;61.40;;;;;;5008272;28;20037;-48
2023/03/03 07:25:31;;;;;;;52.88;26.30;;;5.50;61.00;;;;;;5009479;28;20053;-50
2023/03/03 07:28:06;;;;;;;47.17;25.98;;;5.50;61.20;;;;;;5011031;28;20042;-47
2023/03/03 07:30:33;;;;;;;54.58;25.65;;;5.50;61.00;;;;;;5008726;28;20050;-49
2023/03/03 07:33:00;;;;;;;49.78;24.50;;;5.50;60.70;;;;;;5010116;28;20125;-49
2023/03/03 07:35:42;;;;;;;54.38;26.40;;;5.50;60.70;;;;;;5010035;28;20047;-51
2023/03/03 07:38:40;;;;;;;56.00;26.25;;;5.50;61.00;;;;;;5010414;28;20045;-49
2023/03/03 07:41:19;;;;;;;54.75;27.35;;;5.50;61.30;;;;;;5009073;28;20052;-48
2023/03/03 07:43:53;;;;;;;69.78;29.90;;;5.50;61.20;;;;;;5002946;28;20517;-49
2023/03/03 07:46:42;;;;;;;59.55;29.00;;;5.50;61.10;;;;;;5009558;28;20050;-49
2023/03/03 07:49:35;;;;;;;64.70;31.13;;;5.60;61.30;;;;;;5007726;28;20041;-48
2023/03/03 07:52:20;;;;;;;76.65;35.28;;;5.60;61.30;;;;;;5004940;28;20041;-48
2023/03/03 07:54:46;;;;;;;90.15;40.85;;;5.60;61.00;;;;;;5008172;28;20046;-48
2023/03/03 07:57:18;;;;;;;89.70;41.25;;;5.60;60.30;;;;;;5009496;28;20060;-47
2023/03/03 08:00:27;;;;;;;82.32;39.22;;;5.60;60.60;;;;;;5008308;28;20529;-51
2023/03/03 08:02:59;;;;;;;72.10;34.38;;;5.60;61.00;;;;;;5004177;28;20070;-48
2023/03/03 08:05:29;;;;;;;67.40;32.63;;;5.60;60.20;;;;;;5009550;28;20034;-50
2023/03/03 08:08:29;;;;;;;76.22;35.63;;;5.60;60.50;;;;;;5009286;28;20041;-47
2023/03/03 08:10:58;;;;;;;68.93;31.88;;;5.60;60.70;;;;;;5009810;28;20410;-49
2023/03/03 08:13:36;;;;;;;67.72;29.85;;;5.60;60.30;;;;;;5010341;28;20045;-49
2023/03/03 08:16:08;;;;;;;58.35;29.95;;;5.60;60.20;;;;;;5009522;28;20046;-49
2023/03/03 08:18:38;;;;;;;61.65;29.23;;;5.70;60.40;;;;;;5008587;28;20041;-51
2023/03/03 08:21:14;;;;;;;52.55;26.48;;;5.70;60.40;;;;;;5006320;28;20049;-49
2023/03/03 08:23:41;;;;;;;47.35;23.95;;;5.80;60.40;;;;;;5007182;28;20050;-51
2023/03/03 08:26:09;;;;;;;44.42;22.98;;;5.80;60.20;;;;;;5009618;28;20046;-51
2023/03/03 08:28:35;;;;;;;44.22;22.13;;;5.80;60.10;;;;;;5008024;28;20564;-51
2023/03/03 08:31:02;;;;;;;47.42;22.35;;;5.80;60.00;;;;;;5009305;28;20526;-49
2023/03/03 08:33:46;;;;;;;44.47;21.83;;;5.80;60.20;;;;;;5009502;28;20038;-48
2023/03/03 08:36:13;;;;;;;45.42;23.00;;;5.90;60.20;;;;;;5009969;28;20117;-52
2023/03/03 08:38:41;;;;;;;49.25;22.92;;;5.90;60.10;;;;;;5001077;28;20040;-48
2023/03/03 08:41:08;;;;;;;65.90;30.48;;;5.90;60.00;;;;;;5009214;28;20042;-47
2023/03/03 08:43:37;;;;;;;64.50;31.80;;;6.00;60.00;;;;;;5010004;28;20113;-47
2023/03/03 08:46:05;;;;;;;56.25;28.83;;;6.00;59.90;;;;;;5009201;28;20053;-48
2023/03/03 08:48:33;;;;;;;55.00;27.80;;;6.00;60.50;;;;;;5008862;28;20050;-48
2023/03/03 08:50:59;;;;;;;55.20;27.27;;;6.10;59.90;;;;;;5007538;28;20038;-50
2023/03/03 08:53:27;;;;;;;51.13;26.30;;;6.10;59.80;;;;;;5008656;28;20049;-50
2023/03/03 08:55:54;;;;;;;54.08;25.05;;;6.10;59.80;;;;;;5009331;28;20045;-47
2023/03/03 08:58:23;;;;;;;43.47;24.55;;;6.20;59.80;;;;;;5007861;28;20053;-47
2023/03/03 09:01:01;;;;;;;44.75;24.45;;;6.20;59.70;;;;;;5005139;28;20087;-50
2023/03/03 09:03:28;;;;;;;49.90;23.30;;;6.20;59.80;;;;;;5008991;28;20046;-53
2023/03/03 09:05:55;;;;;;;44.05;22.10;;;6.20;59.80;;;;;;5009226;28;20045;-47
2023/03/03 09:08:22;;;;;;;40.67;20.95;;;6.30;59.70;;;;;;5008445;28;20515;-50
2023/03/03 09:10:48;;;;;;;44.35;21.48;;;6.30;59.80;;;;;;5008667;28;20049;-49
2023/03/03 09:13:19;;;;;;;37.97;21.23;;;6.30;59.70;;;;;;5024997;28;20045;-47
2023/03/03 09:15:46;;;;;;;43.22;23.30;;;6.40;59.70;;;;;;5008455;28;20112;-49
2023/03/03 09:18:18;;;;;;;49.15;24.08;;;6.40;59.70;;;;;;5011095;28;20108;-51
2023/03/03 09:20:46;;;;;;;;;;;6.40;59.90;;;;;;5004105;28;20042;-47
2023/03/03 09:23:33;;;;;;;37.22;18.35;;;6.50;59.90;;;;;;5011931;28;19921;-49
2023/03/03 09:26:21;;;;;;;40.67;20.48;;;6.60;59.70;;;;;;5010630;28;20057;-48
2023/03/03 09:28:48;;;;;;;38.83;20.48;;;6.60;59.50;;;;;;5008838;28;20049;-49
2023/03/03 09:31:39;;;;;;;37.65;20.40;;;6.60;59.10;;;;;;5026289;28;20050;-47
2023/03/03 09:34:35;;;;;;;42.45;21.02;;;6.70;59.60;;;;;;4996253;28;20133;-51
2023/03/03 09:37:27;;;;;;;39.85;20.58;;;6.70;59.50;;;;;;5006635;28;20117;-48
2023/03/03 09:39:59;;;;;;;37.22;20.83;;;6.70;60.00;;;;;;5003974;28;20042;-51
2023/03/03 09:42:53;;;;;;;40.13;20.93;;;6.80;59.10;;;;;;5013159;28;20046;-46
2023/03/03 09:45:33;;;;;;;36.35;19.52;;;6.90;59.30;;;;;;5012242;28;21084;-49
2023/03/03 09:48:21;;;;;;;34.10;19.27;;;6.90;58.90;;;;;;5012185;28;20054;-50
2023/03/03 09:50:58;;;;;;;34.58;18.92;;;6.90;59.10;;;;;;5007271;28;20490;-49
2023/03/03 09:53:49;;;;;;;35.58;19.88;;;7.00;59.00;;;;;;5011897;28;20057;-52
2023/03/03 09:56:30;;;;;;;36.17;18.52;;;7.00;58.90;;;;;;5011971;28;20046;-50
2023/03/03 09:59:19;;;;;;;38.40;20.23;;;7.00;58.80;;;;;;5005905;28;20041;-51
2023/03/03 10:02:18;;;;;;;36.83;18.70;;;7.10;58.90;;;;;;5010437;28;20117;-47
2023/03/03 10:05:08;;;;;;;36.88;18.98;;;7.10;58.80;;;;;;5004311;28;20042;-47
2023/03/03 10:07:44;;;;;;;32.20;17.17;;;7.10;58.80;;;;;;5011722;28;20117;-47
2023/03/03 10:10:17;;;;;;;32.70;19.05;;;7.20;58.60;;;;;;5010619;28;20042;-48
2023/03/03 10:13:11;;;;;;;32.70;17.50;;;7.20;58.40;;;;;;5006111;28;20041;-48
2023/03/03 10:15:41;;;;;;;31.75;17.40;;;7.20;58.50;;;;;;5011669;28;20049;-51
2023/03/03 10:18:29;;;;;;;34.88;18.90;;;7.20;58.60;;;;;;5010521;28;20052;-48
2023/03/03 10:21:15;;;;;;;31.45;17.88;;;7.30;58.90;;;;;;5009345;28;20056;-49
2023/03/03 10:23:55;;;;;;;32.85;18.98;;;7.30;58.60;;;;;;5011469;28;20069;-49
2023/03/03 10:26:43;;;;;;;36.92;18.83;;;7.40;58.50;;;;;;5006748;28;20070;-50
2023/03/03 10:29:36;;;;;;;33.35;17.95;;;7.40;58.60;;;;;;5007625;28;20046;-48
2023/03/03 10:32:24;;;;;;;33.83;18.90;;;7.50;58.70;;;;;;5023761;28;20053;-50
2023/03/03 10:35:01;;;;;;;35.25;18.38;;;7.50;58.40;;;;;;5008420;28;20037;-51
2023/03/03 10:37:50;;;;;;;34.63;19.60;;;7.60;58.30;;;;;;5011520;28;20049;-50
2023/03/03 10:40:40;;;;;;;38.17;19.08;;;7.60;58.30;;;;;;5010372;28;20049;-47
2023/03/03 10:43:10;;;;;;;32.08;18.63;;;7.70;58.30;;;;;;5011678;28;20045;-48
2023/03/03 10:46:00;;;;;;;32.75;16.90;;;7.70;58.00;;;;;;5010750;28;20045;-48
2023/03/03 10:48:54;;;;;;;36.05;19.77;;;7.70;57.80;;;;;;5010888;28;20568;-48
2023/03/03 10:51:30;;;;;;;31.67;18.77;;;7.70;58.90;;;;;;5008771;28;20038;-50
2023/03/03 10:54:32;;;;;;;37.58;18.58;;;7.70;57.90;;;;;;5008141;28;20045;-48
2023/03/03 10:57:14;;;;;;;35.83;19.38;;;7.70;57.90;;;;;;4983013;28;20056;-49
2023/03/03 11:00:04;;;;;;;33.13;18.02;;;7.70;58.10;;;;;;5008610;28;20056;-52
2023/03/03 11:03:18;;;;;;;36.30;18.08;;;7.70;57.90;;;;;;5011656;28;20049;-49
2023/03/03 11:05:50;;;;;;;31.50;18.52;;;7.70;58.40;;;;;;5009533;28;20042;-50
2023/03/03 11:08:32;;;;;;;33.08;17.80;;;7.70;58.30;;;;;;5009002;28;20049;-52
2023/03/03 11:11:11;;;;;;;33.28;19.13;;;7.70;58.40;;;;;;5003212;28;20034;-51
2023/03/03 11:13:55;;;;;;;29.33;16.77;;;7.70;58.30;;;;;;5009412;28;20057;-49
2023/03/03 11:16:39;;;;;;;33.83;17.95;;;7.70;58.50;;;;;;5009583;28;20053;-49
2023/03/03 11:19:34;;;;;;;34.38;17.85;;;7.80;58.60;;;;;;5004551;28;20050;-47
2023/03/03 11:22:28;;;;;;;32.47;16.98;;;7.80;58.30;;;;;;5000914;28;20052;-49
2023/03/03 11:25:19;;;;;;;35.30;18.63;;;7.90;58.30;;;;;;5003670;28;20038;-48
2023/03/03 11:28:24;;;;;;;32.13;18.00;;;7.90;58.10;;;;;;5009064;28;20053;-48
2023/03/03 11:31:05;;;;;;;34.22;18.45;;;8.00;58.10;;;;;;5000554;28;20064;-47
2023/03/03 11:34:00;;;;;;;33.22;18.60;;;8.00;57.90;;;;;;5006531;28;20498;-48
2023/03/03 11:36:35;;;;;;;31.42;17.40;;;8.10;58.40;;;;;;5005378;28;20049;-50
2023/03/03 11:39:07;;;;;;;33.03;18.15;;;8.10;57.60;;;;;;5009404;28;20555;-48
2023/03/03 11:41:42;;;;;;;30.02;18.27;;;8.10;57.40;;;;;;5007854;28;20522;-48
2023/03/03 11:44:33;;;;;;;30.75;17.77;;;8.10;57.50;;;;;;5008962;28;20053;-49
2023/03/03 11:47:18;;;;;;;33.10;17.98;;;8.10;57.50;;;;;;5000767;28;20104;-49
2023/03/03 11:50:04;;;;;;;29.70;16.42;;;8.10;57.40;;;;;;5001414;28;20045;-52
2023/03/03 11:53:06;;;;;;;28.40;16.35;;;8.10;57.30;;;;;;5000510;28;20118;-50
2023/03/03 11:55:36;;;;;;;30.10;18.55;;;8.20;57.60;;;;;;5003985;28;20117;-52
2023/03/03 11:58:13;;;;;;;32.65;18.00;;;8.20;57.30;;;;;;5003486;28;20052;-49
2023/03/03 12:01:01;;;;;;;32.30;17.17;;;8.20;57.40;;;;;;5003897;28;20057;-49
2023/03/03 12:03:40;;;;;;;30.95;17.27;;;8.20;57.70;;;;;;5003406;28;20042;-48
2023/03/03 12:06:18;;;;;;;34.33;18.60;;;8.20;58.10;;;;;;5019537;28;20461;-48
2023/03/03 12:09:00;;;;;;;35.58;19.75;;;8.30;57.60;;;;;;5010152;28;20049;-48
2023/03/03 12:11:38;;;;;;;37.13;19.83;;;8.30;57.50;;;;;;5005388;28;20050;-51
2023/03/03 12:14:21;;;;;;;33.67;17.85;;;8.30;57.30;;;;;;5004709;28;20621;-49
2023/03/03 12:16:55;;;;;;;33.38;17.38;;;8.30;57.30;;;;;;5000474;28;20708;-48
2023/03/03 12:19:48;;;;;;;32.05;17.02;;;8.30;57.10;;;;;;5009370;28;20042;-53
2023/03/03 12:22:28;;;;;;;29.98;16.50;;;8.30;57.20;;;;;;5008593;28;20045;-50
2023/03/03 12:25:10;;;;;;;32.03;17.13;;;8.30;57.10;;;;;;5005606;28;20100;-49
2023/03/03 12:28:18;;;;;;;35.13;18.67;;;8.30;57.10;;;;;;5008177;28;20056;-53
2023/03/03 12:31:15;;;;;;;29.88;17.30;;;8.30;57.00;;;;;;5006253;28;20388;-49
2023/03/03 12:33:58;;;;;;;33.83;16.40;;;8.30;57.00;;;;;;5009312;28;20422;-52
2023/03/03 12:36:33;;;;;;;28.95;16.70;;;8.30;57.10;;;;;;5009153;28;20085;-49
2023/03/03 12:39:23;;;;;;;32.92;16.10;;;8.40;57.10;;;;;;5000341;28;20050;-49
2023/03/03 12:42:38;;;;;;;32.17;17.33;;;8.40;57.30;;;;;;5008447;28;20056;-49
2023/03/03 12:45:30;;;;;;;30.13;15.77;;;8.40;57.30;;;;;;5006176;28;20577;-48
2023/03/03 12:48:17;;;;;;;32.47;17.67;;;8.50;57.30;;;;;;5003063;28;20056;-50
2023/03/03 12:51:06;;;;;;;30.30;15.75;;;8.50;57.20;;;;;;5003067;28;20060;-49
2023/03/03 12:53:53;;;;;;;35.97;18.60;;;8.50;57.10;;;;;;5008734;28;20091;-50
2023/03/03 12:56:52;;;;;;;31.23;17.92;;;8.60;56.90;;;;;;5005550;28;20036;-49
2023/03/03 12:59:45;;;;;;;34.88;18.50;;;8.60;56.90;;;;;;5010004;28;20048;-52
2023/03/03 13:02:37;;;;;;;31.50;17.40;;;8.60;57.10;;;;;;5007000;28;20050;-48
2023/03/03 13:05:41;;;;;;;30.55;16.27;;;8.60;56.80;;;;;;5006084;28;20510;-49
2023/03/03 13:08:30;;;;;;;31.63;17.15;;;8.60;56.70;;;;;;5010971;28;20541;-52
2023/03/03 13:11:41;;;;;;;31.98;17.58;;;8.60;56.90;;;;;;5005366;28;20041;-52
2023/03/03 13:14:29;;;;;;;33.05;17.30;;;8.50;56.90;;;;;;5008509;28;20414;-52
2023/03/03 13:17:07;;;;;;;33.60;17.23;;;8.50;56.80;;;;;;5011773;28;20029;-52
2023/03/03 13:19:58;;;;;;;32.20;16.77;;;8.50;56.80;;;;;;5013067;28;20064;-50
2023/03/03 13:22:47;;;;;;;29.27;16.65;;;8.50;56.80;;;;;;5012056;28;20046;-52